createdAt,value
2019-02-04T00:00:30.933Z,15.00
2019-02-04T00:03:02.024Z,16.20
2019-02-04T00:05:33.736Z,16.37
2019-02-04T00:08:04.375Z,19.30
2019-02-04T00:10:35.113Z,22.10
2019-02-04T00:13:06.670Z,18.53
2019-02-04T00:15:37.497Z,19.47
2019-02-04T00:18:08.314Z,15.90
2019-02-04T00:20:39.037Z,24.33
2019-02-04T00:23:09.752Z,19.70
2019-02-04T00:25:40.845Z,23.97
2019-02-04T00:28:11.559Z,20.83
2019-02-04T00:30:42.339Z,19.13
2019-02-04T00:33:13.077Z,20.40
2019-02-04T00:35:43.831Z,17.60
2019-02-04T00:38:14.860Z,20.23
2019-02-04T00:40:45.597Z,18.00
2019-02-04T00:43:16.445Z,16.70
2019-02-04T00:45:47.189Z,21.30
2019-02-04T00:48:17.949Z,19.03
2019-02-04T00:50:49.126Z,15.77
2019-02-04T00:53:19.923Z,16.60
2019-02-04T00:55:50.741Z,15.80
2019-02-04T00:58:21.865Z,17.67
2019-02-04T01:00:52.626Z,15.40
2019-02-04T01:03:23.359Z,14.97
2019-02-04T01:05:54.127Z,21.00
2019-02-04T01:08:24.887Z,15.73
2019-02-04T01:10:55.646Z,18.80
2019-02-04T01:13:26.405Z,21.27
2019-02-04T01:15:57.193Z,15.93
2019-02-04T01:18:27.921Z,17.83
2019-02-04T01:20:58.653Z,15.93
2019-02-04T01:23:29.283Z,17.13
2019-02-04T01:26:00.017Z,19.33
2019-02-04T01:28:30.734Z,17.60
2019-02-04T01:31:01.465Z,18.00
2019-02-04T01:33:32.187Z,18.53
2019-02-04T01:36:02.918Z,14.73
2019-02-04T01:38:33.711Z,15.27
2019-02-04T01:41:04.471Z,13.50
2019-02-04T01:43:35.174Z,14.33
2019-02-04T01:46:05.909Z,15.87
2019-02-04T01:48:36.595Z,14.40
2019-02-04T01:51:07.323Z,16.87
2019-02-04T01:53:38.020Z,16.03
2019-02-04T01:56:08.856Z,19.40
2019-02-04T01:58:39.631Z,16.67
2019-02-04T02:01:10.304Z,15.63
2019-02-04T02:03:41.018Z,13.90
2019-02-04T02:06:11.777Z,11.93
2019-02-04T02:08:42.610Z,15.73
2019-02-04T02:11:13.360Z,16.10
2019-02-04T02:13:44.009Z,14.57
2019-02-04T02:16:14.730Z,17.63
2019-02-04T02:18:45.453Z,12.97
2019-02-04T02:21:16.499Z,15.70
2019-02-04T02:23:48.378Z,13.23
2019-02-04T02:26:19.102Z,10.53
2019-02-04T02:28:49.802Z,11.73
2019-02-04T02:31:20.526Z,11.90
2019-02-04T02:33:51.531Z,16.00
2019-02-04T02:36:22.285Z,12.87
2019-02-04T02:38:52.990Z,12.30
2019-02-04T02:41:23.728Z,11.90
2019-02-04T02:43:54.420Z,13.73
2019-02-04T02:46:25.152Z,15.10
2019-02-04T02:48:55.872Z,10.20
2019-02-04T02:51:26.597Z,13.53
2019-02-04T02:53:57.289Z,10.10
2019-02-04T02:56:28.010Z,12.07
2019-02-04T02:58:58.625Z,15.30
2019-02-04T03:01:29.277Z,13.17
2019-02-04T03:03:59.993Z,13.03
2019-02-04T03:06:30.722Z,14.17
2019-02-04T03:09:01.421Z,13.53
2019-02-04T03:11:33.770Z,10.80
2019-02-04T03:14:04.475Z,13.77
2019-02-04T03:16:35.189Z,14.50
2019-02-04T03:19:06.862Z,14.70
2019-02-04T03:21:37.581Z,15.17
2019-02-04T03:24:08.290Z,11.83
2019-02-04T03:26:39.041Z,12.37
2019-02-04T03:29:09.746Z,11.93
2019-02-04T03:31:45.774Z,11.80
2019-02-04T03:34:13.059Z,14.53
2019-02-04T03:36:43.859Z,12.27
2019-02-04T03:39:14.581Z,19.83
2019-02-04T03:41:45.305Z,18.30
2019-02-04T03:44:15.996Z,11.57
2019-02-04T03:46:46.744Z,13.47
2019-02-04T03:49:17.441Z,16.47
2019-02-04T03:51:48.359Z,20.17
2019-02-04T03:54:19.001Z,14.50
2019-02-04T03:56:49.738Z,14.40
2019-02-04T03:59:20.441Z,14.73
2019-02-04T04:01:51.489Z,15.07
2019-02-04T04:04:22.393Z,15.00
2019-02-04T04:06:53.126Z,16.70
2019-02-04T04:09:23.832Z,16.17
2019-02-04T04:11:54.513Z,16.37
2019-02-04T04:14:26.191Z,15.40
2019-02-04T04:16:57.233Z,16.47
2019-02-04T04:19:27.945Z,16.90
2019-02-04T04:21:58.679Z,15.00
2019-02-04T04:24:29.389Z,16.20
2019-02-04T04:27:00.121Z,15.57
2019-02-04T04:29:31.234Z,16.83
2019-02-04T04:32:01.981Z,20.07
2019-02-04T04:34:32.694Z,15.67
2019-02-04T04:37:03.437Z,15.53
2019-02-04T04:39:34.178Z,17.67
2019-02-04T04:42:04.745Z,17.53
2019-02-04T04:44:35.214Z,19.10
2019-02-04T04:47:05.965Z,19.63
2019-02-04T04:49:36.707Z,19.67
2019-02-04T04:52:08.497Z,17.27
2019-02-04T04:54:39.141Z,18.07
2019-02-04T04:57:09.841Z,17.43
2019-02-04T04:59:40.569Z,14.87
2019-02-04T05:02:11.216Z,17.63
2019-02-04T05:04:41.948Z,18.63
2019-02-04T05:07:12.657Z,18.13
2019-02-04T05:09:43.410Z,17.70
2019-02-04T05:12:14.144Z,17.83
2019-02-04T05:14:44.882Z,18.07
2019-02-04T05:17:15.517Z,24.40
2019-02-04T05:19:46.266Z,20.83
2019-02-04T05:22:17.174Z,23.20
2019-02-04T05:24:47.900Z,20.10
2019-02-04T05:27:18.597Z,20.97
2019-02-04T05:29:49.278Z,22.40
2019-02-04T05:32:19.914Z,27.30
2019-02-04T05:34:50.845Z,22.57
2019-02-04T05:37:21.581Z,19.40
2019-02-04T05:39:52.238Z,20.37
2019-02-04T05:42:22.988Z,17.40
2019-02-04T05:44:53.696Z,21.33
2019-02-04T05:47:24.708Z,21.23
2019-02-04T05:49:55.373Z,23.63
2019-02-04T05:52:26.081Z,20.53
2019-02-04T05:54:56.753Z,19.80
2019-02-04T05:57:27.459Z,20.03
2019-02-04T05:59:58.509Z,23.13
2019-02-04T06:02:29.251Z,25.33
2019-02-04T06:04:59.976Z,22.50
2019-02-04T06:07:30.692Z,24.33
2019-02-04T06:10:01.445Z,21.63
2019-02-04T06:12:34.882Z,20.20
2019-02-04T06:15:05.845Z,21.60
2019-02-04T06:17:36.558Z,26.60
2019-02-04T06:20:09.510Z,21.93
2019-02-04T06:22:41.120Z,23.17
2019-02-04T06:25:12.165Z,23.47
2019-02-04T06:27:42.872Z,26.67
2019-02-04T06:30:13.941Z,20.70
2019-02-04T06:32:44.663Z,25.23
2019-02-04T06:35:16.097Z,22.10
2019-02-04T06:37:47.347Z,26.60
2019-02-04T06:40:18.386Z,28.67
2019-02-04T06:42:49.090Z,26.13
2019-02-04T06:45:19.925Z,24.70
2019-02-04T06:47:50.642Z,25.63
2019-02-04T06:50:21.416Z,25.83
2019-02-04T06:52:52.136Z,26.30
2019-02-04T06:55:28.350Z,27.57
2019-02-04T06:57:58.994Z,25.40
2019-02-04T07:00:29.720Z,29.53
2019-02-04T07:03:00.752Z,31.00
2019-02-04T07:05:43.077Z,31.10
2019-02-04T07:08:03.833Z,29.77
2019-02-04T07:10:34.494Z,27.50
2019-02-04T07:13:05.256Z,26.77
2019-02-04T07:15:35.922Z,23.80
2019-02-04T07:18:06.544Z,24.80
2019-02-04T07:20:37.279Z,25.40
2019-02-04T07:23:07.986Z,25.13
2019-02-04T07:25:38.740Z,29.60
2019-02-04T07:28:09.453Z,25.77
2019-02-04T07:30:40.190Z,27.60
2019-02-04T07:33:10.906Z,25.23
2019-02-04T07:35:41.670Z,30.20
2019-02-04T07:38:12.409Z,31.70
2019-02-04T07:40:43.145Z,28.13
2019-02-04T07:43:14.279Z,33.90
2019-02-04T07:45:45.017Z,25.23
2019-02-04T07:48:15.745Z,22.37
2019-02-04T07:50:46.486Z,25.13
2019-02-04T07:53:17.213Z,20.47
2019-02-04T07:55:47.877Z,23.40
2019-02-04T07:58:18.594Z,24.00
2019-02-04T08:00:49.261Z,23.03
2019-02-04T08:03:19.991Z,25.90
2019-02-04T08:05:50.708Z,24.33
2019-02-04T08:08:21.426Z,20.60
2019-02-04T08:10:52.117Z,22.40
2019-02-04T08:13:22.869Z,20.63
2019-02-04T08:15:53.590Z,24.67
2019-02-04T08:18:24.316Z,21.40
2019-02-04T08:20:55.017Z,22.03
2019-02-04T08:23:26.036Z,21.80
2019-02-04T08:25:56.682Z,26.13
2019-02-04T08:28:27.429Z,21.90
2019-02-04T08:30:59.122Z,22.13
2019-02-04T08:33:29.855Z,24.00
2019-02-04T08:36:00.849Z,23.27
2019-02-04T08:38:31.566Z,22.03
2019-02-04T08:41:02.215Z,16.10
2019-02-04T08:43:32.926Z,22.43
2019-02-04T08:46:03.627Z,17.33
2019-02-04T08:48:34.341Z,14.93
2019-02-04T08:51:05.573Z,19.13
2019-02-04T08:53:36.337Z,17.53
2019-02-04T08:56:07.071Z,18.90
2019-02-04T08:58:37.794Z,18.43
2019-02-04T09:01:08.429Z,19.63
2019-02-04T09:03:39.349Z,20.20
2019-02-04T09:06:10.052Z,25.80
2019-02-04T09:08:40.767Z,20.27
2019-02-04T09:11:11.582Z,19.13
2019-02-04T09:13:42.253Z,22.20
2019-02-04T09:16:12.955Z,24.83
2019-02-04T09:18:45.160Z,28.60
2019-02-04T09:21:15.842Z,23.23
2019-02-04T09:23:46.589Z,26.27
2019-02-04T09:26:17.681Z,33.13
2019-02-04T09:28:48.401Z,26.17
2019-02-04T09:31:19.307Z,20.40
2019-02-04T09:33:50.021Z,30.97
2019-02-04T09:36:20.847Z,27.37
2019-02-04T09:38:51.540Z,28.17
2019-02-04T09:41:23.133Z,22.23
2019-02-04T09:43:53.878Z,24.83
2019-02-04T09:46:24.595Z,26.80
2019-02-04T09:48:55.311Z,26.40
2019-02-04T09:51:26.017Z,26.80
2019-02-04T09:53:56.753Z,21.33
2019-02-04T09:56:27.457Z,21.70
2019-02-04T09:58:58.389Z,25.17
2019-02-04T10:01:29.106Z,23.63
2019-02-04T10:03:59.849Z,21.40
2019-02-04T10:06:30.553Z,21.77
2019-02-04T10:09:01.274Z,21.13
2019-02-04T10:11:33.391Z,19.30
2019-02-04T10:14:04.125Z,20.40
2019-02-04T10:16:34.831Z,16.97
2019-02-04T10:19:05.597Z,19.23
2019-02-04T10:21:36.265Z,19.47
2019-02-04T10:24:07.199Z,20.80
2019-02-04T10:26:37.902Z,18.30
2019-02-04T10:29:08.583Z,17.83
2019-02-04T10:31:39.276Z,19.00
2019-02-04T10:34:10.000Z,17.13
2019-02-04T10:36:41.043Z,15.10
2019-02-04T10:39:11.715Z,17.07
2019-02-04T10:41:42.582Z,12.70
2019-02-04T10:44:13.451Z,15.90
2019-02-04T10:46:45.127Z,21.37
2019-02-04T10:49:16.193Z,8.10
2019-02-04T10:51:46.936Z,16.20
2019-02-04T10:54:17.689Z,12.57
2019-02-04T10:56:48.426Z,5.97
2019-02-04T10:59:19.205Z,6.33
2019-02-04T11:01:49.906Z,7.90
2019-02-04T11:04:20.691Z,7.20
2019-02-04T11:06:51.512Z,7.83
2019-02-04T11:09:22.195Z,9.60
2019-02-04T11:11:52.963Z,8.67
2019-02-04T11:14:23.716Z,7.70
2019-02-04T11:16:54.751Z,9.80
2019-02-04T11:19:25.479Z,9.90
2019-02-04T11:21:56.217Z,12.00
2019-02-04T11:24:27.082Z,10.33
2019-02-04T11:26:57.915Z,7.70
2019-02-04T11:29:29.046Z,10.40
2019-02-04T11:31:59.818Z,13.87
2019-02-04T11:34:30.556Z,10.00
2019-02-04T11:37:01.258Z,11.27
2019-02-04T11:39:32.019Z,10.57
2019-02-04T11:42:03.259Z,11.87
2019-02-04T11:44:34.090Z,12.80
2019-02-04T11:47:04.852Z,9.60
2019-02-04T11:49:35.563Z,10.47
2019-02-04T11:52:06.282Z,7.93
2019-02-04T11:54:37.032Z,10.37
2019-02-04T11:57:07.749Z,7.63
2019-02-04T11:59:38.513Z,7.47
2019-02-04T12:02:09.338Z,5.80
2019-02-04T12:04:41.159Z,6.10
2019-02-04T12:07:11.978Z,10.37
2019-02-04T12:09:42.735Z,8.20
2019-02-04T12:12:13.686Z,9.50
2019-02-04T12:14:44.522Z,7.37
2019-02-04T12:17:15.238Z,9.50
2019-02-04T12:19:45.982Z,10.50
2019-02-04T12:22:16.810Z,14.23
2019-02-04T12:24:47.554Z,6.90
2019-02-04T12:27:18.267Z,7.80
2019-02-04T12:29:49.030Z,7.30
2019-02-04T12:32:19.779Z,10.23
2019-02-04T12:34:51.150Z,10.50
2019-02-04T12:37:21.888Z,9.63
2019-02-04T12:39:52.650Z,10.20
2019-02-04T12:42:23.383Z,14.97
2019-02-04T12:44:54.147Z,9.70
2019-02-04T12:47:25.939Z,11.30
2019-02-04T12:49:56.698Z,14.23
2019-02-04T12:52:27.414Z,13.93
2019-02-04T12:54:58.176Z,15.20
2019-02-04T12:57:28.904Z,11.93
2019-02-04T12:59:59.671Z,10.73
2019-02-04T13:02:30.411Z,9.90
2019-02-04T13:05:01.190Z,8.23
2019-02-04T13:07:31.946Z,8.63
2019-02-04T13:10:02.699Z,4.80
2019-02-04T13:12:34.532Z,11.20
2019-02-04T13:15:06.375Z,8.07
2019-02-04T13:17:37.129Z,5.20
2019-02-04T13:20:09.371Z,6.60
2019-02-04T13:22:40.099Z,7.80
2019-02-04T13:25:12.718Z,9.47
2019-02-04T13:27:43.589Z,8.13
2019-02-04T13:30:16.970Z,8.20
2019-02-04T13:32:47.686Z,7.93
2019-02-04T13:35:18.657Z,8.00
2019-02-04T13:37:50.027Z,8.50
2019-02-04T13:40:23.626Z,9.93
2019-02-04T13:42:54.572Z,9.37
2019-02-04T13:45:25.436Z,10.43
2019-02-04T13:47:56.232Z,12.23
2019-02-04T13:50:27.079Z,10.20
2019-02-04T13:52:58.021Z,9.60
2019-02-04T13:55:32.510Z,9.23
2019-02-04T13:58:03.146Z,9.97
2019-02-04T14:00:34.347Z,10.27
2019-02-04T14:03:06.953Z,8.70
2019-02-04T14:05:38.110Z,7.83
2019-02-04T14:08:08.915Z,11.17
2019-02-04T14:10:41.658Z,7.40
2019-02-04T14:13:12.627Z,9.47
2019-02-04T14:15:43.773Z,11.70
2019-02-04T14:18:14.501Z,9.33
2019-02-04T14:20:45.266Z,12.50
2019-02-04T14:23:16.084Z,9.73
2019-02-04T14:25:46.865Z,11.37
2019-02-04T14:28:17.879Z,15.37
2019-02-04T14:30:48.580Z,12.53
2019-02-04T14:33:19.317Z,11.23
2019-02-04T14:35:50.065Z,10.53
2019-02-04T14:38:20.778Z,11.40
2019-02-04T14:40:51.921Z,9.97
2019-02-04T14:43:35.740Z,10.40
2019-02-04T14:46:33.613Z,10.03
2019-02-04T14:49:44.865Z,9.87
2019-02-04T14:52:59.084Z,9.20
2019-02-04T14:56:00.226Z,10.07
2019-02-04T14:58:43.034Z,10.53
2019-02-04T15:01:53.317Z,10.83
2019-02-04T15:05:20.094Z,8.90
2019-02-04T15:08:34.888Z,9.97
2019-02-04T15:11:18.057Z,8.93
2019-02-04T15:14:14.957Z,8.17
2019-02-04T15:17:13.711Z,8.40
2019-02-04T15:20:20.286Z,11.27
2019-02-04T15:23:17.850Z,9.07
2019-02-04T15:26:24.162Z,9.27
2019-02-04T15:29:54.405Z,7.67
2019-02-04T15:33:09.368Z,8.17
2019-02-04T15:36:12.586Z,9.57
2019-02-04T15:39:12.105Z,10.10
2019-02-04T15:42:31.858Z,14.23
2019-02-04T15:45:10.006Z,11.83
2019-02-04T15:47:51.487Z,10.90
2019-02-04T15:50:43.299Z,11.50
2019-02-04T15:53:14.077Z,14.50
2019-02-04T15:55:44.806Z,9.97
2019-02-04T15:58:15.541Z,12.57
2019-02-04T16:00:46.553Z,16.63
2019-02-04T16:03:17.289Z,15.63
2019-02-04T16:05:47.945Z,14.53
2019-02-04T16:08:18.682Z,13.43
2019-02-04T16:10:49.461Z,15.47
2019-02-04T16:13:20.193Z,10.70
2019-02-04T16:15:50.853Z,13.67
2019-02-04T16:18:21.585Z,14.93
2019-02-04T16:20:52.364Z,19.53
2019-02-04T16:23:23.966Z,21.57
2019-02-04T16:25:54.659Z,16.73
2019-02-04T16:28:25.382Z,16.07
2019-02-04T16:30:56.108Z,15.77
2019-02-04T16:33:26.852Z,17.03
2019-02-04T16:35:57.585Z,17.70
2019-02-04T16:38:28.340Z,20.53
2019-02-04T16:40:59.483Z,18.37
2019-02-04T16:43:30.222Z,14.10
2019-02-04T16:46:00.939Z,14.53
2019-02-04T16:48:31.689Z,15.87
2019-02-04T16:51:11.272Z,12.90
2019-02-04T16:53:34.741Z,15.03
2019-02-04T16:56:05.478Z,12.97
2019-02-04T16:58:36.202Z,14.27
2019-02-04T17:01:06.924Z,13.00
2019-02-04T17:03:37.690Z,18.77
2019-02-04T17:06:08.405Z,17.07
2019-02-04T17:08:39.159Z,20.77
2019-02-04T17:11:09.897Z,20.00
2019-02-04T17:13:40.782Z,20.30
2019-02-04T17:16:11.531Z,17.73
2019-02-04T17:18:42.299Z,21.90
2019-02-04T17:21:13.382Z,24.03
2019-02-04T17:23:44.188Z,21.27
2019-02-04T17:26:14.942Z,23.33
2019-02-04T17:28:45.868Z,20.37
2019-02-04T17:31:16.658Z,24.37
2019-02-04T17:33:48.058Z,24.33
2019-02-04T17:36:18.783Z,21.17
2019-02-04T17:38:49.690Z,28.77
2019-02-04T17:41:20.614Z,23.20
2019-02-04T17:43:51.361Z,20.37
2019-02-04T17:46:22.097Z,25.40
2019-02-04T17:48:53.219Z,22.10
2019-02-04T17:51:25.005Z,22.83
2019-02-04T17:53:55.717Z,26.33
2019-02-04T17:56:26.890Z,23.83
2019-02-04T17:58:57.625Z,22.60
2019-02-04T18:01:28.386Z,21.30
2019-02-04T18:03:59.315Z,24.57
2019-02-04T18:06:31.664Z,20.77
2019-02-04T18:09:02.453Z,22.47
2019-02-04T18:11:33.788Z,27.00
2019-02-04T18:14:04.888Z,23.60
2019-02-04T18:16:35.698Z,26.77
2019-02-04T18:19:06.431Z,29.53
2019-02-04T18:21:37.207Z,26.70
2019-02-04T18:24:07.913Z,31.33
2019-02-04T18:26:38.769Z,31.03
2019-02-04T18:29:09.501Z,28.07
2019-02-04T18:31:40.253Z,30.03
2019-02-04T18:34:10.946Z,32.13
2019-02-04T18:36:41.682Z,29.17
2019-02-04T18:39:12.857Z,24.90
2019-02-04T18:41:43.681Z,25.67
2019-02-04T18:44:14.417Z,26.80
2019-02-04T18:46:45.608Z,27.90
2019-02-04T18:49:16.337Z,31.67
2019-02-04T18:51:47.109Z,33.07
2019-02-04T18:54:17.834Z,28.63
2019-02-04T18:56:48.642Z,30.33
2019-02-04T18:59:19.371Z,31.40
2019-02-04T19:01:50.127Z,28.40
2019-02-04T19:04:20.887Z,27.77
2019-02-04T19:06:51.649Z,24.90
2019-02-04T19:09:22.410Z,23.97
2019-02-04T19:11:55.436Z,24.80
2019-02-04T19:14:25.597Z,27.47
2019-02-04T19:16:56.363Z,23.60
2019-02-04T19:19:27.080Z,22.50
2019-02-04T19:21:57.894Z,28.90
2019-02-04T19:24:28.642Z,26.00
2019-02-04T19:26:59.414Z,30.43
2019-02-04T19:29:30.471Z,24.80
2019-02-04T19:32:02.939Z,27.23
2019-02-04T19:34:33.638Z,27.90
2019-02-04T19:37:04.447Z,31.20
2019-02-04T19:39:35.164Z,27.60
2019-02-04T19:42:06.852Z,25.03
2019-02-04T19:44:37.589Z,26.97
2019-02-04T19:47:08.350Z,24.30
2019-02-04T19:49:39.227Z,26.33
2019-02-04T19:52:15.641Z,25.17
2019-02-04T19:54:47.348Z,27.17
2019-02-04T19:57:18.169Z,25.93
2019-02-04T19:59:49.045Z,28.60
2019-02-04T20:02:19.785Z,24.07
2019-02-04T20:04:51.401Z,31.47
2019-02-04T20:07:22.457Z,27.07
2019-02-04T20:09:53.189Z,27.60
2019-02-04T20:12:26.837Z,29.33
2019-02-04T20:14:57.762Z,25.90
2019-02-04T20:17:28.502Z,28.03
2019-02-04T20:19:59.427Z,27.63
2019-02-04T20:22:30.085Z,30.40
2019-02-04T20:25:00.821Z,26.10
2019-02-04T20:27:31.513Z,23.97
2019-02-04T20:30:02.250Z,27.10
2019-02-04T20:32:33.967Z,27.07
2019-02-04T20:35:05.675Z,28.00
2019-02-04T20:37:37.397Z,28.00
2019-02-04T20:40:09.114Z,25.13
2019-02-04T20:42:40.243Z,28.57
2019-02-04T20:45:12.175Z,32.00
2019-02-04T20:47:43.228Z,26.97
2019-02-04T20:50:17.393Z,34.63
2019-02-04T20:52:48.579Z,35.10
2019-02-04T20:55:19.766Z,33.73
2019-02-04T20:57:50.901Z,31.73
2019-02-04T21:00:25.258Z,34.10
2019-02-04T21:02:56.233Z,35.77
2019-02-04T21:05:27.161Z,35.60
2019-02-04T21:07:58.017Z,31.37
2019-02-04T21:10:29.372Z,33.17
2019-02-04T21:13:00.845Z,34.53
2019-02-04T21:15:31.746Z,33.30
2019-02-04T21:18:03.101Z,37.53
2019-02-04T21:20:34.323Z,40.90
2019-02-04T21:23:05.413Z,43.03
2019-02-04T21:25:36.538Z,40.43
2019-02-04T21:28:07.527Z,39.07
2019-02-04T21:30:40.541Z,34.53
2019-02-04T21:33:11.236Z,28.10
2019-02-04T21:35:41.907Z,27.00
2019-02-04T21:38:13.048Z,30.97
2019-02-04T21:40:43.769Z,29.70
2019-02-04T21:43:14.577Z,30.57
2019-02-04T21:45:46.397Z,31.00
2019-02-04T21:48:17.195Z,36.10
2019-02-04T21:50:47.919Z,31.80
2019-02-04T21:53:18.691Z,33.90
2019-02-04T21:55:49.449Z,35.97
2019-02-04T21:58:20.193Z,36.57
2019-02-04T22:00:50.966Z,35.50
2019-02-04T22:03:21.729Z,39.00
2019-02-04T22:05:52.405Z,33.90
2019-02-04T22:08:23.128Z,34.43
2019-02-04T22:10:54.280Z,34.00
2019-02-04T22:13:25.033Z,31.93
2019-02-04T22:15:57.049Z,29.00
2019-02-04T22:18:27.778Z,37.90
2019-02-04T22:20:58.526Z,35.97
2019-02-04T22:23:29.253Z,31.63
2019-02-04T22:26:00.329Z,31.10
2019-02-04T22:28:31.061Z,33.13
2019-02-04T22:31:02.108Z,35.40
2019-02-04T22:33:32.849Z,32.40
2019-02-04T22:36:03.589Z,31.93
2019-02-04T22:38:34.248Z,35.63
2019-02-04T22:41:05.514Z,36.43
2019-02-04T22:43:36.266Z,43.00
2019-02-04T22:46:07.441Z,41.77
2019-02-04T22:48:39.257Z,38.97
2019-02-04T22:51:10.010Z,39.83
2019-02-04T22:53:40.744Z,38.43
2019-02-04T22:56:11.505Z,44.63
2019-02-04T22:58:42.524Z,39.83
2019-02-04T23:01:29.581Z,39.23
2019-02-04T23:04:00.306Z,38.63
2019-02-04T23:06:31.050Z,37.37
2019-02-04T23:09:02.077Z,34.33
2019-02-04T23:11:34.620Z,33.23
2019-02-04T23:14:06.692Z,35.00
2019-02-04T23:16:37.543Z,36.00
2019-02-04T23:19:08.681Z,30.93
2019-02-04T23:21:39.752Z,37.23
2019-02-04T23:24:10.497Z,31.10
2019-02-04T23:26:41.233Z,30.30
2019-02-04T23:29:11.978Z,35.17
2019-02-04T23:31:42.648Z,34.10
2019-02-04T23:34:13.711Z,34.00
2019-02-04T23:36:44.454Z,35.07
2019-02-04T23:39:15.174Z,33.20
2019-02-04T23:41:45.910Z,36.80
2019-02-04T23:44:16.665Z,35.00
2019-02-04T23:46:47.425Z,40.40
2019-02-04T23:49:18.076Z,39.77
2019-02-04T23:51:49.713Z,38.00
2019-02-04T23:54:20.444Z,33.77
2019-02-04T23:56:51.217Z,41.23
2019-02-04T23:59:21.917Z,39.90
